Time;durP1;ratioP1;P1;durP2;ratioP2;P2;SDS_P1;SDS_P2;PMS_P1;PMS_P2;Temp;Humidity;BMP_temperature;BMP_pressure;BME280_temperature;BME280_humidity;BME280_pressure;Samples;Min_cycle;Max_cycle;Signal;HPM_P1;HPM_P2
2021/06/26 00:00:55;;;;;;;2.07;1.97;;;;;;;;;;10261977;28;20445;-64
2021/06/26 00:05:53;;;;;;;2.03;1.58;;;;;;;;;;10262410;28;20042;-64
2021/06/26 00:10:51;;;;;;;1.27;1.23;;;;;;;;;;10262492;28;20061;-64
2021/06/26 00:15:49;;;;;;;1.83;1.73;;;;;;;;;;10262395;28;20462;-64
2021/06/26 00:20:46;;;;;;;1.70;1.60;;;;;;;;;;10245135;28;20117;-64
2021/06/26 00:25:44;;;;;;;2.00;1.90;;;;;;;;;;10262310;28;20092;-64
2021/06/26 00:30:41;;;;;;;1.77;1.67;;;;;;;;;;10277610;28;20038;-64
2021/06/26 00:35:40;;;;;;;2.05;1.85;;;;;;;;;;10260702;28;20320;-64
2021/06/26 00:40:38;;;;;;;1.73;1.63;;;;;;;;;;10260354;28;20042;-64
2021/06/26 00:45:35;;;;;;;2.00;1.70;;;;;;;;;;10243593;28;20107;-64
2021/06/26 00:50:33;;;;;;;2.43;1.97;;;;;;;;;;10261179;28;20037;-64
2021/06/26 00:55:30;;;;;;;1.70;1.60;;;;;;;;;;10261156;28;20045;-64
2021/06/26 01:00:29;;;;;;;2.20;2.00;;;;;;;;;;10261857;28;20037;-64
2021/06/26 01:05:26;;;;;;;;;;;;;;;;;;10260954;28;20180;-64
2021/06/26 01:10:23;;;;;;;1.73;1.63;;;;;;;;;;10259221;28;20380;-64
2021/06/26 01:15:21;;;;;;;1.90;1.80;;;;;;;;;;10259611;28;20469;-65
2021/06/26 01:20:20;;;;;;;2.60;2.10;;;;;;;;;;10259138;28;20037;-65
2021/06/26 01:25:19;;;;;;;2.13;1.92;;;;;;;;;;10260874;28;20042;-65
2021/06/26 01:30:21;;;;;;;1.95;1.85;;;;;;;;;;10260186;28;20067;-65
2021/06/26 01:35:19;;;;;;;1.90;1.80;;;;;;;;;;10259125;28;20045;-65
2021/06/26 01:40:18;;;;;;;2.20;2.00;;;;;;;;;;10259991;28;20034;-65
2021/06/26 01:45:17;;;;;;;1.83;1.60;;;;;;;;;;10240881;28;20034;-65
2021/06/26 01:50:15;;;;;;;2.35;2.10;;;;;;;;;;10260704;28;20040;-65
2021/06/26 01:55:13;;;;;;;1.85;1.75;;;;;;;;;;10258835;28;20374;-65
2021/06/26 02:00:11;;;;;;;1.98;1.88;;;;;;;;;;10261445;28;20030;-65
2021/06/26 02:05:13;;;;;;;2.20;2.00;;;;;;;;;;10267820;28;20038;-65
2021/06/26 02:10:11;;;;;;;;;;;;;;;;;;10250968;28;20388;-65
2021/06/26 02:15:09;;;;;;;2.10;2.00;;;;;;;;;;10267452;28;19906;-65
2021/06/26 02:20:07;;;;;;;3.17;1.85;;;;;;;;;;10267478;28;20502;-65
2021/06/26 02:25:05;;;;;;;;;;;;;;;;;;10267366;28;20676;-65
2021/06/26 02:30:03;;;;;;;2.90;2.03;;;;;;;;;;10282200;28;19916;-65
2021/06/26 02:35:01;;;;;;;2.05;1.90;;;;;;;;;;10266104;28;20045;-65
2021/06/26 02:39:58;;;;;;;2.20;1.90;;;;;;;;;;10281743;28;20033;-65
2021/06/26 02:44:56;;;;;;;2.40;2.20;;;;;;;;;;10266390;28;20345;-65
2021/06/26 02:49:53;;;;;;;3.13;2.47;;;;;;;;;;10267027;28;20117;-65
2021/06/26 02:54:51;;;;;;;3.37;2.17;;;;;;;;;;10266159;28;20512;-64
2021/06/26 02:59:48;;;;;;;3.17;2.13;;;;;;;;;;10265836;28;20038;-65
2021/06/26 03:04:46;;;;;;;2.40;2.20;;;;;;;;;;10265143;28;20041;-65
2021/06/26 03:09:43;;;;;;;2.70;2.10;;;;;;;;;;10263901;28;20103;-65
2021/06/26 03:14:41;;;;;;;3.27;2.30;;;;;;;;;;10263714;28;20037;-65
2021/06/26 03:19:38;;;;;;;5.77;2.70;;;;;;;;;;10264914;28;20121;-64
2021/06/26 03:24:36;;;;;;;3.93;2.30;;;;;;;;;;10263783;28;20292;-64
2021/06/26 03:29:33;;;;;;;4.73;2.50;;;;;;;;;;10264604;28;20407;-64
2021/06/26 03:34:31;;;;;;;3.20;2.20;;;;;;;;;;10263553;28;20393;-64
2021/06/26 03:39:28;;;;;;;3.00;2.43;;;;;;;;;;10264674;28;20038;-64
2021/06/26 03:44:26;;;;;;;5.20;2.80;;;;;;;;;;10264081;28;20049;-65
2021/06/26 03:49:23;;;;;;;2.40;2.20;;;;;;;;;;10262431;28;20549;-64
2021/06/26 03:54:21;;;;;;;2.40;2.20;;;;;;;;;;10263058;28;20038;-65
2021/06/26 03:59:18;;;;;;;2.23;1.70;;;;;;;;;;10262077;28;20154;-65
2021/06/26 04:04:16;;;;;;;2.40;2.20;;;;;;;;;;10261724;28;20038;-65
2021/06/26 04:09:14;;;;;;;2.60;2.40;;;;;;;;;;10261169;28;20113;-65
2021/06/26 04:14:11;;;;;;;3.53;2.38;;;;;;;;;;10244803;28;20034;-65
2021/06/26 04:19:08;;;;;;;2.57;2.10;;;;;;;;;;10261313;28;20455;-65
2021/06/26 04:24:06;;;;;;;2.20;2.10;;;;;;;;;;10262241;28;20269;-64
2021/06/26 04:29:03;;;;;;;2.30;2.20;;;;;;;;;;10262762;28;20438;-65
2021/06/26 04:34:01;;;;;;;2.43;2.20;;;;;;;;;;10277406;28;20042;-66
2021/06/26 04:38:59;;;;;;;2.70;2.30;;;;;;;;;;10260970;28;20034;-65
2021/06/26 04:43:57;;;;;;;2.10;1.85;;;;;;;;;;10261488;28;20049;-66
2021/06/26 04:48:54;;;;;;;2.10;1.90;;;;;;;;;;10261731;28;20078;-66
2021/06/26 04:53:52;;;;;;;2.38;2.17;;;;;;;;;;10230638;28;20037;-65
2021/06/26 04:58:49;;;;;;;2.47;2.27;;;;;;;;;;10229595;28;20064;-65
2021/06/26 05:03:47;;;;;;;2.50;2.30;;;;;;;;;;10231602;28;20046;-65
2021/06/26 05:08:45;;;;;;;5.88;2.30;;;;;;;;;;10233510;28;20526;-65
2021/06/26 05:13:42;;;;;;;2.70;2.40;;;;;;;;;;10232269;28;20042;-65
2021/06/26 05:18:40;;;;;;;2.40;2.20;;;;;;;;;;10233127;28;20072;-66
2021/06/26 05:23:37;;;;;;;2.33;2.00;;;;;;;;;;10233320;28;20035;-65
2021/06/26 05:28:36;;;;;;;2.60;2.50;;;;;;;;;;10238850;28;20129;-65
2021/06/26 05:33:33;;;;;;;2.53;2.33;;;;;;;;;;10234930;28;20388;-66
2021/06/26 05:38:31;;;;;;;2.17;2.07;;;;;;;;;;10244026;28;20309;-66
2021/06/26 05:43:28;;;;;;;3.30;3.00;;;;;;;;;;10244155;28;20038;-66
2021/06/26 05:48:26;;;;;;;2.93;2.63;;;;;;;;;;10254411;28;20505;-66
2021/06/26 05:53:25;;;;;;;3.70;3.40;;;;;;;;;;10254135;28;20037;-66
2021/06/26 05:58:26;;;;;;;2.92;2.72;;;;;;;;;;10256184;28;20029;-66
2021/06/26 06:03:24;;;;;;;3.03;2.78;;;;;;;;;;10253240;28;20055;-66
2021/06/26 06:08:21;;;;;;;3.40;3.10;;;;;;;;;;10238376;28;20038;-66
2021/06/26 06:13:20;;;;;;;5.10;4.00;;;;;;;;;;10249984;28;20042;-66
2021/06/26 06:18:18;;;;;;;4.63;4.20;;;;;;;;;;10246542;28;20312;-66
2021/06/26 06:23:16;;;;;;;5.13;4.63;;;;;;;;;;10253695;28;20041;-66
2021/06/26 06:28:13;;;;;;;7.10;5.18;;;;;;;;;;10252272;28;20026;-66
2021/06/26 06:33:11;;;;;;;6.97;5.35;;;;;;;;;;10247628;28;20455;-66
2021/06/26 06:38:08;;;;;;;7.73;6.63;;;;;;;;;;10237961;28;20512;-66
2021/06/26 06:43:06;;;;;;;10.23;8.23;;;;;;;;;;10249238;28;20341;-66
2021/06/26 06:48:04;;;;;;;9.20;7.70;;;;;;;;;;10244018;28;20457;-66
2021/06/26 06:53:02;;;;;;;;;;;;;;;;;;10246745;28;20038;-66
2021/06/26 06:57:59;;;;;;;8.27;7.43;;;;;;;;;;10239717;28;20039;-66
2021/06/26 07:02:57;;;;;;;;;;;;;;;;;;10240360;28;20165;-66
2021/06/26 07:07:54;;;;;;;10.38;9.38;;;;;;;;;;10240474;28;19994;-66
2021/06/26 07:12:51;;;;;;;;;;;;;;;;;;10240685;28;20039;-66
2021/06/26 07:17:49;;;;;;;11.30;10.15;;;;;;;;;;10238013;28;19961;-66
2021/06/26 07:22:46;;;;;;;11.27;10.02;;;;;;;;;;10248491;28;20038;-66
2021/06/26 07:27:44;;;;;;;;;;;;;;;;;;10252424;28;20034;-66
2021/06/26 07:32:44;;;;;;;13.83;9.77;;;;;;;;;;10251258;28;19968;-67
2021/06/26 07:37:42;;;;;;;11.57;10.45;;;;;;;;;;10250490;28;20143;-66
2021/06/26 07:42:39;;;;;;;11.38;10.20;;;;;;;;;;10247229;28;20042;-66
2021/06/26 07:47:37;;;;;;;13.63;11.38;;;;;;;;;;10256695;28;20022;-66
2021/06/26 07:52:35;;;;;;;12.35;11.07;;;;;;;;;;10255312;28;20036;-66
2021/06/26 07:57:32;;;;;;;14.00;11.63;;;;;;;;;;10244760;28;20084;-66
2021/06/26 08:02:30;;;;;;;14.35;11.30;;;;;;;;;;10247949;28;20072;-66
2021/06/26 08:07:27;;;;;;;12.83;11.53;;;;;;;;;;10289454;28;20034;-67
2021/06/26 08:12:25;;;;;;;12.52;11.23;;;;;;;;;;10263487;28;20269;-67
2021/06/26 08:17:22;;;;;;;14.23;11.68;;;;;;;;;;10264928;28;20034;-67
2021/06/26 08:22:20;;;;;;;12.75;10.82;;;;;;;;;;10270127;28;20514;-67
2021/06/26 08:27:17;;;;;;;15.07;12.13;;;;;;;;;;10280120;28;20041;-65
2021/06/26 08:32:14;;;;;;;15.60;11.57;;;;;;;;;;10264801;28;20084;-66
2021/06/26 08:37:12;;;;;;;13.07;9.87;;;;;;;;;;10262586;28;20700;-66
2021/06/26 08:42:10;;;;;;;12.48;10.18;;;;;;;;;;10250392;28;20352;-66
2021/06/26 08:47:08;;;;;;;11.40;9.52;;;;;;;;;;10263763;28;20402;-66
2021/06/26 08:52:05;;;;;;;12.18;9.57;;;;;;;;;;10264366;28;20034;-66
2021/06/26 08:57:03;;;;;;;8.85;7.93;;;;;;;;;;10251437;28;20049;-66
2021/06/26 09:02:01;;;;;;;9.65;8.13;;;;;;;;;;10248665;28;20150;-66
2021/06/26 09:06:59;;;;;;;9.40;7.47;;;;;;;;;;10258976;28;20045;-66
2021/06/26 09:12:04;;;;;;;8.02;7.30;;;;;;;;;;10266220;28;20038;-66
2021/06/26 09:17:02;;;;;;;8.23;6.85;;;;;;;;;;10264865;28;20038;-66
2021/06/26 09:22:06;;;;;;;7.03;6.32;;;;;;;;;;10265275;28;20091;-66
2021/06/26 09:27:03;;;;;;;8.55;7.28;;;;;;;;;;10268981;28;20099;-66
2021/06/26 09:32:03;;;;;;;7.38;6.78;;;;;;;;;;10254035;28;20042;-66
2021/06/26 09:37:04;;;;;;;8.48;7.60;;;;;;;;;;10260845;28;20048;-66
2021/06/26 09:42:06;;;;;;;7.03;6.10;;;;;;;;;;10269323;28;20034;-66
2021/06/26 09:47:03;;;;;;;7.53;6.72;;;;;;;;;;10266366;28;20034;-66
2021/06/26 09:52:02;;;;;;;7.57;6.88;;;;;;;;;;10264618;28;20033;-66
2021/06/26 09:56:59;;;;;;;7.93;6.43;;;;;;;;;;10265778;28;20041;-66
2021/06/26 10:01:57;;;;;;;6.50;5.95;;;;;;;;;;10274942;28;20030;-66
2021/06/26 10:06:56;;;;;;;7.32;6.65;;;;;;;;;;10252655;28;20562;-66
2021/06/26 10:11:53;;;;;;;7.47;6.50;;;;;;;;;;10259505;28;20520;-67
2021/06/26 10:16:52;;;;;;;7.67;6.97;;;;;;;;;;10254944;28;20433;-66
2021/06/26 10:21:50;;;;;;;7.35;6.00;;;;;;;;;;10284848;28;20328;-66
2021/06/26 10:26:47;;;;;;;6.90;6.30;;;;;;;;;;10263284;28;20088;-66
2021/06/26 10:31:45;;;;;;;6.40;5.78;;;;;;;;;;10267396;28;20687;-66
2021/06/26 10:36:51;;;;;;;6.47;5.88;;;;;;;;;;10264121;28;20050;-66
2021/06/26 10:41:59;;;;;;;5.78;5.28;;;;;;;;;;10254403;28;20129;-66
2021/06/26 10:46:56;;;;;;;6.78;6.00;;;;;;;;;;10266745;28;20038;-66
2021/06/26 10:52:05;;;;;;;6.70;6.10;;;;;;;;;;10251012;28;20045;-66
2021/06/26 10:57:06;;;;;;;6.75;5.95;;;;;;;;;;10255915;28;20033;-66
2021/06/26 11:02:04;;;;;;;8.10;6.43;;;;;;;;;;10281760;28;20030;-66
2021/06/26 11:07:08;;;;;;;6.85;6.25;;;;;;;;;;10250330;28;20068;-66
2021/06/26 11:12:10;;;;;;;7.88;5.72;;;;;;;;;;10233839;28;20042;-66
2021/06/26 11:17:07;;;;;;;7.28;6.45;;;;;;;;;;10267790;28;20499;-66
2021/06/26 11:22:05;;;;;;;7.80;6.33;;;;;;;;;;10265892;28;20112;-66
2021/06/26 11:27:03;;;;;;;6.97;6.37;;;;;;;;;;10265026;28;20129;-66
2021/06/26 11:32:02;;;;;;;7.22;6.30;;;;;;;;;;10282248;28;20276;-67
2021/06/26 11:37:01;;;;;;;6.65;5.97;;;;;;;;;;10256800;28;20066;-66
2021/06/26 11:41:59;;;;;;;6.80;6.10;;;;;;;;;;10253541;28;20587;-66
2021/06/26 11:47:07;;;;;;;6.65;5.93;;;;;;;;;;10259930;28;20446;-67
2021/06/26 11:52:07;;;;;;;5.88;5.35;;;;;;;;;;10247343;28;20038;-67
2021/06/26 11:57:07;;;;;;;7.50;5.55;;;;;;;;;;10242602;28;20135;-67
2021/06/26 12:02:05;;;;;;;6.55;5.93;;;;;;;;;;10243522;28;20042;-68
2021/06/26 12:07:03;;;;;;;7.70;6.10;;;;;;;;;;10231603;28;20038;-68
2021/06/26 12:12:00;;;;;;;6.25;5.75;;;;;;;;;;10236297;28;20037;-68
2021/06/26 12:17:05;;;;;;;6.93;6.20;;;;;;;;;;10245995;28;20560;-68
2021/06/26 12:22:04;;;;;;;6.18;5.65;;;;;;;;;;10239140;28;20034;-68
2021/06/26 12:27:10;;;;;;;6.45;5.70;;;;;;;;;;10236524;28;20034;-68
2021/06/26 12:32:08;;;;;;;6.07;5.57;;;;;;;;;;10244739;28;20113;-68
2021/06/26 12:37:05;;;;;;;6.30;5.70;;;;;;;;;;10247205;28;20519;-68
2021/06/26 12:42:09;;;;;;;6.90;6.23;;;;;;;;;;10242222;28;20076;-68
2021/06/26 12:47:08;;;;;;;6.53;5.93;;;;;;;;;;10244722;28;20034;-68
2021/06/26 12:52:12;;;;;;;5.80;5.30;;;;;;;;;;10246487;28;20030;-68
2021/06/26 12:57:10;;;;;;;6.80;6.10;;;;;;;;;;10244382;28;20117;-69
2021/06/26 13:02:09;;;;;;;6.80;6.20;;;;;;;;;;10248567;28;20297;-68
2021/06/26 13:07:07;;;;;;;6.72;5.68;;;;;;;;;;10234798;28;20068;-69
2021/06/26 13:12:11;;;;;;;6.88;6.18;;;;;;;;;;10242554;28;20034;-68
2021/06/26 13:17:09;;;;;;;6.45;5.85;;;;;;;;;;10237634;28;20034;-69
2021/06/26 13:22:07;;;;;;;6.60;6.00;;;;;;;;;;10238668;28;20337;-68
2021/06/26 13:27:04;;;;;;;6.10;5.50;;;;;;;;;;10232991;28;20553;-68
2021/06/26 13:32:02;;;;;;;6.50;5.68;;;;;;;;;;10239144;28;20030;-68
2021/06/26 13:37:00;;;;;;;6.95;6.22;;;;;;;;;;10235869;28;20086;-68
2021/06/26 13:41:58;;;;;;;6.67;6.07;;;;;;;;;;10234684;28;20031;-68
2021/06/26 13:46:55;;;;;;;6.55;5.93;;;;;;;;;;10242581;28;20658;-68
2021/06/26 13:51:53;;;;;;;6.57;5.97;;;;;;;;;;10233867;28;20044;-68
2021/06/26 13:56:50;;;;;;;6.67;6.07;;;;;;;;;;10260626;28;20693;-68
2021/06/26 14:01:48;;;;;;;6.10;5.50;;;;;;;;;;10245807;28;20038;-67
2021/06/26 14:06:45;;;;;;;5.43;4.90;;;;;;;;;;10251621;28;20065;-68
2021/06/26 14:11:44;;;;;;;5.40;4.90;;;;;;;;;;10249894;28;20034;-68
2021/06/26 14:16:42;;;;;;;5.85;5.30;;;;;;;;;;10254815;28;20034;-68
2021/06/26 14:21:39;;;;;;;5.30;4.80;;;;;;;;;;10252560;28;20129;-67
2021/06/26 14:26:37;;;;;;;5.13;4.43;;;;;;;;;;10243504;28;20120;-68
2021/06/26 14:31:34;;;;;;;5.63;5.10;;;;;;;;;;10247409;28;20064;-68
2021/06/26 14:36:32;;;;;;;4.77;4.17;;;;;;;;;;10221979;28;20750;-69
2021/06/26 14:41:29;;;;;;;5.10;4.47;;;;;;;;;;10231444;28;20284;-67
2021/06/26 14:46:27;;;;;;;4.83;4.00;;;;;;;;;;10249648;28;20277;-68
2021/06/26 14:51:24;;;;;;;3.95;3.63;;;;;;;;;;10254120;28;20278;-67
2021/06/26 14:56:22;;;;;;;4.65;4.25;;;;;;;;;;10252333;28;20038;-67
2021/06/26 15:01:20;;;;;;;4.23;3.93;;;;;;;;;;10255878;28;20026;-67
2021/06/26 15:06:18;;;;;;;4.20;3.80;;;;;;;;;;10261014;28;20454;-68
2021/06/26 15:11:15;;;;;;;4.35;4.05;;;;;;;;;;10262526;28;20030;-67
2021/06/26 15:16:12;;;;;;;5.93;4.60;;;;;;;;;;10258465;28;20035;-67
2021/06/26 15:21:11;;;;;;;4.30;3.93;;;;;;;;;;10260985;28;20042;-67
2021/06/26 15:26:08;;;;;;;4.43;4.00;;;;;;;;;;10254550;28;20048;-67
2021/06/26 15:31:06;;;;;;;4.35;3.97;;;;;;;;;;10277439;28;20040;-67
2021/06/26 15:36:04;;;;;;;4.15;3.75;;;;;;;;;;10263523;28;20108;-67
2021/06/26 15:41:02;;;;;;;3.67;3.38;;;;;;;;;;10267455;28;20076;-67
2021/06/26 15:45:59;;;;;;;4.00;3.70;;;;;;;;;;10272473;28;20120;-67
2021/06/26 15:50:59;;;;;;;3.97;3.58;;;;;;;;;;10247069;28;20433;-67
2021/06/26 15:55:57;;;;;;;3.65;3.35;;;;;;;;;;10246737;28;20034;-67
2021/06/26 16:00:55;;;;;;;3.50;3.20;;;;;;;;;;10257876;28;20038;-67
2021/06/26 16:05:52;;;;;;;4.10;3.80;;;;;;;;;;10263007;28;20046;-67
2021/06/26 16:10:50;;;;;;;5.60;3.65;;;;;;;;;;10267922;28;20116;-67
2021/06/26 16:15:47;;;;;;;4.07;3.70;;;;;;;;;;10296384;28;20030;-67
2021/06/26 16:20:45;;;;;;;4.07;3.53;;;;;;;;;;10258558;28;20280;-67
2021/06/26 16:25:42;;;;;;;3.20;2.90;;;;;;;;;;10261245;28;20088;-67
2021/06/26 16:30:42;;;;;;;4.03;3.10;;;;;;;;;;10277124;28;20444;-66
2021/06/26 16:35:39;;;;;;;3.45;3.25;;;;;;;;;;10260208;28;20287;-67
2021/06/26 16:40:37;;;;;;;4.70;3.38;;;;;;;;;;10294820;28;20053;-66
2021/06/26 16:45:34;;;;;;;3.70;3.40;;;;;;;;;;10300114;28;20117;-67
2021/06/26 16:50:32;;;;;;;4.10;3.77;;;;;;;;;;10300906;28;20063;-67
2021/06/26 16:55:29;;;;;;;3.97;3.57;;;;;;;;;;10300096;28;20037;-67
2021/06/26 17:00:27;;;;;;;4.10;3.77;;;;;;;;;;10301468;28;20036;-67
2021/06/26 17:05:24;;;;;;;5.23;4.30;;;;;;;;;;10300499;28;20762;-68
2021/06/26 17:10:23;;;;;;;4.15;3.85;;;;;;;;;;10301273;28;20272;-67
2021/06/26 17:15:21;;;;;;;4.60;4.30;;;;;;;;;;10299887;28;20110;-67
2021/06/26 17:20:18;;;;;;;5.23;4.80;;;;;;;;;;10300907;28;20041;-67
2021/06/26 17:25:16;;;;;;;4.63;4.28;;;;;;;;;;10295223;28;20125;-67
2021/06/26 17:30:13;;;;;;;5.03;4.53;;;;;;;;;;10298271;28;20448;-67
2021/06/26 17:35:11;;;;;;;5.57;4.88;;;;;;;;;;10308812;28;20267;-67
2021/06/26 17:40:12;;;;;;;5.50;5.00;;;;;;;;;;10325104;28;20045;-67
2021/06/26 17:45:10;;;;;;;6.22;5.43;;;;;;;;;;10308410;28;20347;-67
2021/06/26 17:50:08;;;;;;;6.15;5.65;;;;;;;;;;10292692;28;20040;-67
2021/06/26 17:55:06;;;;;;;5.30;4.80;;;;;;;;;;10309574;28;20049;-67
2021/06/26 18:00:06;;;;;;;5.88;5.28;;;;;;;;;;10308493;28;20144;-67
2021/06/26 18:05:05;;;;;;;5.32;4.72;;;;;;;;;;10305803;28;20120;-67
2021/06/26 18:10:06;;;;;;;5.10;4.70;;;;;;;;;;10291174;28;20172;-68
2021/06/26 18:15:04;;;;;;;5.05;4.55;;;;;;;;;;10229013;28;20121;-68
2021/06/26 18:20:02;;;;;;;5.15;4.70;;;;;;;;;;10256588;28;20125;-68
2021/06/26 18:25:00;;;;;;;5.53;5.00;;;;;;;;;;10235278;28;20513;-69
2021/06/26 18:29:58;;;;;;;5.22;4.82;;;;;;;;;;10237472;28;20461;-68
2021/06/26 18:34:55;;;;;;;5.13;4.70;;;;;;;;;;10228172;28;20037;-67
2021/06/26 18:39:53;;;;;;;5.70;5.10;;;;;;;;;;10233362;28;20041;-68
2021/06/26 18:44:50;;;;;;;4.93;4.53;;;;;;;;;;10240238;28;20501;-68
2021/06/26 18:49:47;;;;;;;5.13;4.53;;;;;;;;;;10243262;28;20405;-68
2021/06/26 18:54:45;;;;;;;5.27;4.83;;;;;;;;;;10246432;28;20038;-67
2021/06/26 18:59:42;;;;;;;5.57;4.97;;;;;;;;;;10225112;28;20281;-68
2021/06/26 19:04:40;;;;;;;5.80;4.63;;;;;;;;;;10235549;28;20033;-67
2021/06/26 19:09:41;;;;;;;4.85;4.45;;;;;;;;;;10238715;28;20022;-67
2021/06/26 19:14:39;;;;;;;5.00;4.32;;;;;;;;;;10234646;28;20345;-67
2021/06/26 19:19:36;;;;;;;4.88;4.38;;;;;;;;;;10224005;28;20064;-67
2021/06/26 19:24:34;;;;;;;4.53;3.95;;;;;;;;;;10228188;28;20211;-68
2021/06/26 19:29:31;;;;;;;4.27;3.93;;;;;;;;;;10233270;28;20053;-67
2021/06/26 19:34:30;;;;;;;4.57;4.18;;;;;;;;;;10232834;28;20303;-67
2021/06/26 19:39:28;;;;;;;4.43;3.97;;;;;;;;;;10247867;28;20042;-67
2021/06/26 19:44:25;;;;;;;4.67;3.97;;;;;;;;;;10233104;28;20380;-68
2021/06/26 19:49:23;;;;;;;4.93;4.43;;;;;;;;;;10223068;28;20400;-67
2021/06/26 19:54:20;;;;;;;6.07;3.73;;;;;;;;;;10241639;28;20316;-67
2021/06/26 19:59:18;;;;;;;4.57;4.03;;;;;;;;;;10241782;28;20644;-67
2021/06/26 20:04:15;;;;;;;4.88;3.60;;;;;;;;;;10225973;28;20173;-67
2021/06/26 20:09:13;;;;;;;5.00;4.40;;;;;;;;;;10242195;28;20508;-67
2021/06/26 20:14:10;;;;;;;4.60;4.07;;;;;;;;;;10241461;28;20426;-66
2021/06/26 20:19:08;;;;;;;4.20;3.80;;;;;;;;;;10245965;28;20160;-67
2021/06/26 20:24:05;;;;;;;5.50;4.07;;;;;;;;;;10240775;28;20096;-67
2021/06/26 20:29:03;;;;;;;6.05;4.22;;;;;;;;;;10253670;28;20335;-67
2021/06/26 20:34:01;;;;;;;4.45;4.03;;;;;;;;;;10247371;28;20037;-67
2021/06/26 20:38:58;;;;;;;4.38;3.97;;;;;;;;;;10234643;28;20041;-66
2021/06/26 20:43:55;;;;;;;4.73;4.00;;;;;;;;;;10249517;28;20113;-66
2021/06/26 20:48:53;;;;;;;6.50;4.03;;;;;;;;;;10232241;28;20030;-67
2021/06/26 20:53:50;;;;;;;4.80;3.93;;;;;;;;;;10241173;28;20038;-66
2021/06/26 20:58:48;;;;;;;4.43;3.27;;;;;;;;;;10243584;28;20356;-66
2021/06/26 21:03:46;;;;;;;4.00;3.65;;;;;;;;;;10232263;28;20316;-66
2021/06/26 21:08:43;;;;;;;4.50;3.40;;;;;;;;;;10231729;28;20037;-66
2021/06/26 21:13:40;;;;;;;;;;;;;;;;;;10241746;28;20049;-66
2021/06/26 21:18:38;;;;;;;4.07;3.67;;;;;;;;;;10232095;28;20260;-66
2021/06/26 21:23:35;;;;;;;3.88;3.00;;;;;;;;;;10237759;28;20084;-66
2021/06/26 21:28:33;;;;;;;;;;;;;;;;;;10246451;28;20030;-66
2021/06/26 21:33:33;;;;;;;3.80;2.97;;;;;;;;;;10240322;28;20256;-66
2021/06/26 21:38:31;;;;;;;4.13;2.95;;;;;;;;;;10213290;28;20096;-65
2021/06/26 21:43:28;;;;;;;;;;;;;;;;;;10229193;28;20042;-66
2021/06/26 21:48:26;;;;;;;4.03;3.05;;;;;;;;;;10245641;28;19918;-66
2021/06/26 21:53:23;;;;;;;;;;;;;;;;;;10226730;28;20050;-66
2021/06/26 21:58:20;;;;;;;3.43;2.90;;;;;;;;;;10221156;28;20157;-66
2021/06/26 22:03:18;;;;;;;;;;;;;;;;;;10226097;28;20041;-66
2021/06/26 22:08:15;;;;;;;3.10;2.80;;;;;;;;;;10256520;28;19917;-65
2021/06/26 22:13:13;;;;;;;4.80;3.40;;;;;;;;;;10236783;28;20033;-65
2021/06/26 22:18:13;;;;;;;;;;;;;;;;;;10247883;28;20030;-65
2021/06/26 22:23:11;;;;;;;3.63;2.60;;;;;;;;;;10256346;28;19936;-66
2021/06/26 22:28:09;;;;;;;4.07;3.15;;;;;;;;;;10240650;28;20062;-66
2021/06/26 22:33:06;;;;;;;4.53;2.80;;;;;;;;;;10247468;28;20050;-65
2021/06/26 22:38:04;;;;;;;2.87;2.60;;;;;;;;;;10253558;28;20030;-65
2021/06/26 22:43:02;;;;;;;3.30;3.00;;;;;;;;;;10241980;28;20323;-66
2021/06/26 22:47:59;;;;;;;3.15;2.85;;;;;;;;;;10250936;28;20564;-66
2021/06/26 22:52:57;;;;;;;3.67;3.17;;;;;;;;;;10246123;28;20034;-66
2021/06/26 22:57:54;;;;;;;3.07;2.70;;;;;;;;;;10246684;28;20288;-65
2021/06/26 23:02:53;;;;;;;3.20;2.60;;;;;;;;;;10267845;28;20030;-66
2021/06/26 23:07:51;;;;;;;3.25;2.70;;;;;;;;;;10240120;28;20056;-65
2021/06/26 23:12:48;;;;;;;3.67;3.05;;;;;;;;;;10245513;28;20022;-66
2021/06/26 23:17:47;;;;;;;3.27;2.77;;;;;;;;;;10245928;28;20492;-65
2021/06/26 23:22:45;;;;;;;3.20;2.90;;;;;;;;;;10268436;28;20030;-65
2021/06/26 23:27:43;;;;;;;3.65;2.72;;;;;;;;;;10229018;28;20053;-65
2021/06/26 23:32:41;;;;;;;3.17;2.88;;;;;;;;;;10249159;28;20562;-65
2021/06/26 23:37:40;;;;;;;2.92;2.63;;;;;;;;;;10234132;28;20030;-65
2021/06/26 23:42:37;;;;;;;4.03;2.80;;;;;;;;;;10235992;28;20094;-65
2021/06/26 23:47:35;;;;;;;3.35;2.60;;;;;;;;;;10247745;28;20060;-65
2021/06/26 23:52:32;;;;;;;2.80;2.53;;;;;;;;;;10243206;28;20088;-66
2021/06/26 23:57:30;;;;;;;2.67;2.47;;;;;;;;;;10230426;28;20049;-66
